Time;durP1;ratioP1;P1;durP2;ratioP2;P2;SDS_P1;SDS_P2;PMS_P1;PMS_P2;Temp;Humidity;BMP_temperature;BMP_pressure;BME280_temperature;BME280_humidity;BME280_pressure;Samples;Min_cycle;Max_cycle;Signal;HPM_P1;HPM_P2
2022/11/10 00:02:15;;;;;;;95.20;56.72;;;;;;;12.60;100.00;100671.13;5108443;28;20026;-67
2022/11/10 00:04:41;;;;;;;98.57;57.55;;;;;;;12.60;100.00;100663.91;5108434;28;20027;-67
2022/11/10 00:07:06;;;;;;;98.32;57.47;;;;;;;12.60;100.00;100665.75;5107797;28;20573;-67
2022/11/10 00:09:32;;;;;;;101.97;57.40;;;;;;;12.60;100.00;100663.06;5108612;28;20039;-67
2022/11/10 00:11:57;;;;;;;94.57;55.65;;;;;;;12.58;100.00;100659.69;5108284;28;20428;-66
2022/11/10 00:17:09;;;;;;;88.45;55.05;;;;;;;12.57;100.00;100666.03;5108570;28;20066;-67
2022/11/10 00:19:34;;;;;;;93.20;55.30;;;;;;;12.62;100.00;100677.22;5112147;28;20031;-67
2022/11/10 00:22:01;;;;;;;86.85;53.78;;;;;;;12.62;100.00;100671.84;5110977;28;20050;-67
2022/11/10 00:24:27;;;;;;;91.20;54.42;;;;;;;12.63;100.00;100676.22;5110537;28;20043;-67
2022/11/10 00:26:54;;;;;;;86.80;53.45;;;;;;;12.60;100.00;100666.59;5112006;28;20035;-66
2022/11/10 00:29:21;;;;;;;84.45;52.42;;;;;;;12.62;100.00;100671.84;5111934;28;20019;-67
2022/11/10 00:31:46;;;;;;;91.65;53.67;;;;;;;12.56;100.00;100665.19;5112224;28;20485;-67
2022/11/10 00:34:14;;;;;;;91.70;54.00;;;;;;;12.56;100.00;100665.19;5110289;28;20031;-64
2022/11/10 00:36:41;;;;;;;90.78;54.83;;;;;;;12.63;100.00;100676.22;5110438;28;20016;-66
2022/11/10 00:39:07;;;;;;;91.32;53.67;;;;;;;12.63;100.00;100676.22;5112158;28;20426;-65
2022/11/10 00:41:32;;;;;;;85.32;51.67;;;;;;;12.63;100.00;100679.78;5112275;28;20027;-66
2022/11/10 00:43:58;;;;;;;92.32;53.30;;;;;;;12.62;100.00;100674.53;5111740;28;20026;-66
2022/11/10 00:46:23;;;;;;;91.78;54.22;;;;;;;12.58;100.00;100668.56;5111176;28;20044;-71
2022/11/10 00:48:49;;;;;;;87.93;53.08;;;;;;;12.63;100.00;100679.78;5111861;28;20039;-70
2022/11/10 00:51:24;;;;;;;87.38;52.47;;;;;;;12.64;100.00;100677.97;5111652;28;20076;-71
2022/11/10 00:53:50;;;;;;;85.93;50.75;;;;;;;12.63;100.00;100678.94;5111561;28;20027;-70
2022/11/10 00:56:16;;;;;;;86.97;52.05;;;;;;;12.64;100.00;100681.47;5110208;28;20027;-71
2022/11/10 00:58:42;;;;;;;86.75;51.78;;;;;;;12.63;100.00;100677.09;5111068;28;20031;-71
2022/11/10 01:01:08;;;;;;;82.75;51.08;;;;;;;12.59;100.00;100674.81;5110609;28;20502;-71
2022/11/10 01:03:34;;;;;;;87.70;51.05;;;;;;;12.65;100.00;100680.50;5111651;28;20067;-71
2022/11/10 01:06:04;;;;;;;84.57;50.25;;;;;;;12.66;100.00;100681.34;5109908;28;20055;-66
2022/11/10 01:08:30;;;;;;;84.47;51.30;;;;;;;12.61;100.00;100672.84;5109779;28;20123;-66
2022/11/10 01:11:07;;;;;;;80.53;50.85;;;;;;;12.58;100.00;100673.97;5111072;28;20035;-66
2022/11/10 01:13:34;;;;;;;83.65;49.38;;;;;;;12.66;100.00;100684.91;5109920;28;20450;-71
2022/11/10 01:16:07;;;;;;;78.18;48.78;;;;;;;12.64;100.00;100680.66;5111079;28;20031;-65
2022/11/10 01:18:33;;;;;;;74.97;47.10;;;;;;;12.63;100.00;100671.72;5111396;28;20043;-66
2022/11/10 01:20:59;;;;;;;80.40;47.63;;;;;;;12.63;100.00;100671.72;5110934;28;20897;-66
2022/11/10 01:23:25;;;;;;;74.20;46.40;;;;;;;12.63;100.00;100666.34;5109414;28;20031;-66
2022/11/10 01:25:50;;;;;;;73.90;45.83;;;;;;;12.64;100.00;100672.56;5110869;28;20019;-66
2022/11/10 01:28:16;;;;;;;74.22;46.67;;;;;;;12.56;100.00;100653.56;5108922;28;20024;-65
2022/11/10 01:30:41;;;;;;;76.30;47.88;;;;;;;12.60;100.00;100663.91;5109383;28;20467;-66
2022/11/10 01:33:07;;;;;;;75.25;45.65;;;;;;;12.59;100.00;100664.06;5110989;28;20035;-65
2022/11/10 01:35:33;;;;;;;74.25;45.70;;;;;;;12.64;100.00;100677.97;5110409;28;20027;-66
2022/11/10 01:37:59;;;;;;;77.72;46.75;;;;;;;12.67;100.00;100686.59;5110588;28;20031;-66
2022/11/10 01:40:25;;;;;;;73.15;46.10;;;;;;;12.57;100.00;100661.50;5110598;28;20639;-65
2022/11/10 01:42:53;;;;;;;80.38;48.10;;;;;;;12.54;100.00;100655.56;5108536;28;20049;-66
2022/11/10 01:45:21;;;;;;;78.57;48.42;;;;;;;12.61;100.00;100670.16;5110343;28;20052;-71
2022/11/10 01:48:01;;;;;;;74.88;46.05;;;;;;;12.60;100.00;100674.69;5110997;28;20058;-71
2022/11/10 01:50:31;;;;;;;81.93;48.20;;;;;;;12.59;100.00;100666.75;5110423;27;20035;-71
2022/11/10 01:53:00;;;;;;;75.65;46.47;;;;;;;12.52;100.00;100660.22;5109966;28;20046;-71
2022/11/10 01:55:27;;;;;;;74.45;46.38;;;;;;;12.60;100.00;100676.50;5110224;28;20020;-71
2022/11/10 01:57:53;;;;;;;76.03;46.20;;;;;;;12.56;100.00;100672.41;5110402;28;20023;-71
2022/11/10 02:00:20;;;;;;;75.90;45.70;;;;;;;12.55;100.00;100673.41;5110405;28;20067;-71
2022/11/10 02:02:51;;;;;;;76.07;47.22;;;;;;;12.55;100.00;100679.66;5110355;27;20040;-71
2022/11/10 02:05:17;;;;;;;74.45;46.38;;;;;;;12.49;100.00;100671.25;5109793;28;20028;-71
2022/11/10 02:07:44;;;;;;;73.95;45.45;;;;;;;12.53;100.00;100678.91;5110191;28;20026;-71
2022/11/10 02:10:15;;;;;;;77.50;45.78;;;;;;;12.47;100.00;100673.22;5111380;28;20059;-71
2022/11/10 02:12:41;;;;;;;73.18;43.88;;;;;;;12.46;100.00;100676.91;5111197;28;20030;-70
2022/11/10 02:15:10;;;;;;;73.05;45.30;;;;;;;12.46;100.00;100680.47;5111177;28;20023;-71
2022/11/10 02:17:36;;;;;;;68.47;43.53;;;;;;;12.46;100.00;100691.22;5110705;28;20019;-70
2022/11/10 02:20:05;;;;;;;72.15;45.47;;;;;;;12.44;100.00;100689.63;5110794;28;20168;-71
2022/11/10 02:22:31;;;;;;;75.45;47.05;;;;;;;12.44;100.00;100684.25;5110583;28;20023;-71
2022/11/10 02:24:57;;;;;;;67.45;42.28;;;;;;;12.42;100.00;100680.88;5110830;28;20106;-70
2022/11/10 02:27:22;;;;;;;70.35;44.35;;;;;;;12.41;100.00;100696.16;5110771;28;20464;-71
2022/11/10 02:29:48;;;;;;;78.45;46.10;;;;;;;12.37;100.00;100686.66;5110396;28;20027;-70
2022/11/10 02:32:13;;;;;;;81.45;47.38;;;;;;;12.34;100.00;100683.38;5110511;28;20046;-71
2022/11/10 02:34:39;;;;;;;73.65;44.42;;;;;;;12.32;100.00;100683.53;5109641;28;20034;-70
2022/11/10 02:37:05;;;;;;;72.30;45.20;;;;;;;12.30;100.00;100687.34;5110498;28;20032;-71
2022/11/10 02:39:30;;;;;;;73.30;45.03;;;;;;;12.31;100.00;100691.72;5108173;28;20024;-70
2022/11/10 02:41:56;;;;;;;75.40;45.85;;;;;;;12.28;100.00;100700.09;5109983;28;20076;-71
2022/11/10 02:44:21;;;;;;;69.07;43.40;;;;;;;12.25;100.00;100706.56;5110155;28;20031;-70
2022/11/10 02:46:47;;;;;;;73.00;45.15;;;;;;;12.23;100.00;100697.81;5110297;28;20127;-70
2022/11/10 02:49:12;;;;;;;75.97;45.53;;;;;;;12.15;100.00;100694.09;5109965;28;20043;-71
2022/11/10 02:51:37;;;;;;;71.55;45.13;;;;;;;12.10;100.00;100691.81;5110552;28;20024;-71
2022/11/10 02:54:05;;;;;;;68.05;43.78;;;;;;;12.14;100.00;100708.50;5110659;28;20032;-71
2022/11/10 02:56:30;;;;;;;74.75;45.13;;;;;;;12.10;100.00;100707.09;5110637;28;20019;-71
2022/11/10 02:58:56;;;;;;;73.88;45.95;;;;;;;12.02;100.00;100704.22;5110087;28;20030;-72
2022/11/10 03:01:21;;;;;;;71.07;43.95;;;;;;;11.97;100.00;100712.69;5109506;28;20088;-71
2022/11/10 03:03:47;;;;;;;70.05;44.22;;;;;;;11.92;100.00;100719.44;5107558;28;20036;-72
2022/11/10 03:06:12;;;;;;;70.75;42.40;;;;;;;11.83;100.00;100715.72;5110040;28;20024;-71
2022/11/10 03:08:38;;;;;;;71.70;43.40;;;;;;;11.79;100.00;100730.41;5110132;28;20024;-71
2022/11/10 03:11:04;;;;;;;71.32;43.83;;;;;;;11.69;100.00;100724.13;5110019;28;20118;-71
2022/11/10 03:13:29;;;;;;;69.05;44.30;;;;;;;11.66;100.00;100735.13;5109586;28;20065;-66
2022/11/10 03:15:55;;;;;;;75.95;46.20;;;;;;;11.61;100.00;100736.47;5109976;28;20034;-71
2022/11/10 03:18:21;;;;;;;70.95;44.90;;;;;;;11.57;100.00;100745.78;5110145;28;20482;-71
2022/11/10 03:20:48;;;;;;;67.72;43.97;;;;;;;11.53;100.00;100746.06;5108399;28;20066;-71
2022/11/10 03:23:16;;;;;;;74.75;45.90;;;;;;;11.52;100.00;100748.88;5109964;28;20051;-71
2022/11/10 03:25:41;;;;;;;77.13;46.38;;;;;;;11.49;100.00;100749.13;5109820;28;20066;-71
2022/11/10 03:28:07;;;;;;;78.70;46.33;;;;;;;11.51;100.00;100750.69;5108488;28;20059;-71
2022/11/10 03:30:33;;;;;;;78.20;46.53;;;;;;;11.57;100.00;100767.28;5108414;28;20510;-71
2022/11/10 03:32:58;;;;;;;72.68;44.90;;;;;;;11.55;100.00;100767.41;5109771;28;20428;-71
2022/11/10 03:35:24;;;;;;;84.13;50.33;;;;;;;11.53;100.00;100764.00;5109404;28;20035;-71
2022/11/10 03:37:49;;;;;;;84.35;50.58;;;;;;;11.43;100.00;100749.63;5109546;28;20490;-72
2022/11/10 03:40:15;;;;;;;88.57;50.80;;;;;;;11.48;100.00;100761.69;5110090;28;20032;-71
2022/11/10 03:42:42;;;;;;;85.65;50.72;;;;;;;11.49;100.00;100771.44;5109964;28;20023;-72
2022/11/10 03:45:09;;;;;;;88.55;51.17;;;;;;;11.49;100.00;100771.44;5109184;28;20131;-71
2022/11/10 03:47:34;;;;;;;86.15;51.13;;;;;;;11.46;100.00;100777.09;5108062;28;20482;-71
2022/11/10 03:49:59;;;;;;;79.80;48.72;;;;;;;11.48;100.00;100775.13;5109523;28;20028;-71
2022/11/10 03:52:25;;;;;;;87.75;50.47;;;;;;;11.51;100.00;100776.69;5112290;28;20027;-71
2022/11/10 03:54:50;;;;;;;84.53;50.45;;;;;;;11.48;100.00;100776.94;5112099;28;20031;-71
2022/11/10 03:57:16;;;;;;;87.20;51.65;;;;;;;11.48;100.00;100776.94;5113744;28;20023;-71
2022/11/10 03:59:41;;;;;;;84.00;50.88;;;;;;;11.49;100.00;100781.34;5114069;28;20027;-71
2022/11/10 04:02:07;;;;;;;87.53;50.47;;;;;;;11.50;100.00;100786.59;5113573;28;20110;-71
2022/11/10 04:10:00;;;;;;;78.18;47.47;;;;;;;11.47;100.00;100784.16;5114044;28;20493;-71
2022/11/10 04:18:19;;;;;;;64.82;40.20;;;;;;;11.51;100.00;100801.72;5113677;28;20180;-70
2022/11/10 04:20:41;;;;;;;62.10;38.45;;;;;;;11.50;100.00;100800.03;5112856;28;20673;-70
2022/11/10 04:23:48;;;;;;;61.00;38.22;;;;;;;11.52;100.00;100805.28;5107031;28;20032;-71
2022/11/10 04:28:47;;;;;;;53.13;36.03;;;;;;;11.35;100.00;100806.69;5097841;28;20043;-71
2022/11/10 04:31:15;;;;;;;52.75;34.00;;;;;;;11.29;100.00;100809.88;5095040;28;20107;-70
2022/11/10 04:33:41;;;;;;;55.20;37.03;;;;;;;11.21;100.00;100801.59;5112495;28;20042;-70
2022/11/10 04:36:08;;;;;;;53.83;36.38;;;;;;;11.23;100.00;100814.91;5113170;28;20394;-70
2022/11/10 04:38:34;;;;;;;57.17;36.90;;;;;;;11.23;100.00;100817.59;5113381;28;20057;-70
2022/11/10 04:41:00;;;;;;;56.55;38.38;;;;;;;11.18;100.00;100817.97;5111633;28;20043;-66
2022/11/10 04:43:26;;;;;;;61.88;37.70;;;;;;;11.19;100.00;100822.34;5110671;28;20031;-70
2022/11/10 04:45:52;;;;;;;60.25;36.72;;;;;;;11.29;100.00;100823.28;5112445;28;20052;-65
2022/11/10 04:48:18;;;;;;;60.35;38.15;;;;;;;11.27;100.00;100825.28;5112779;28;20027;-66
2022/11/10 04:50:43;;;;;;;59.65;38.28;;;;;;;11.11;100.00;100824.81;5112616;28;20505;-66
2022/11/10 04:53:09;;;;;;;63.63;39.08;;;;;;;11.14;100.00;100831.78;5111950;28;20031;-65
2022/11/10 04:55:38;;;;;;;65.40;40.40;;;;;;;11.12;100.00;100841.75;5112109;28;20114;-65
2022/11/10 04:58:04;;;;;;;70.50;41.53;;;;;;;11.23;100.00;100845.28;5112410;28;20627;-66
2022/11/10 05:00:30;;;;;;;71.25;40.65;;;;;;;11.20;100.00;100840.19;5110876;28;20027;-66
2022/11/10 05:02:58;;;;;;;80.68;42.97;;;;;;;11.10;100.00;100839.22;5111479;28;20084;-65
2022/11/10 05:05:24;;;;;;;74.78;42.45;;;;;;;11.15;100.00;100855.81;5110408;28;20027;-65
2022/11/10 05:07:49;;;;;;;98.32;50.85;;;;;;;11.13;100.00;100849.69;5112439;28;20431;-66
2022/11/10 05:10:15;;;;;;;92.00;48.00;;;;;;;11.07;100.00;100841.31;5112188;28;20122;-65
2022/11/10 05:12:41;;;;;;;92.65;47.65;;;;;;;11.20;100.00;100864.34;5110709;28;20038;-66
2022/11/10 05:15:07;;;;;;;94.50;47.38;;;;;;;11.03;100.00;100834.50;5111980;28;20391;-65
2022/11/10 05:17:32;;;;;;;93.55;47.80;;;;;;;11.35;100.00;100859.53;5111759;28;20038;-65
2022/11/10 05:19:57;;;;;;;98.63;48.15;;;;;;;11.19;100.00;100840.31;5112033;28;20036;-66
2022/11/10 05:22:23;;;;;;;101.68;49.97;;;;;;;11.24;100.00;100864.94;5110437;28;20040;-65
2022/11/10 05:24:48;;;;;;;100.10;50.00;;;;;;;11.08;100.00;100841.19;5111919;28;20032;-65
2022/11/10 05:27:14;;;;;;;89.70;46.63;;;;;;;11.17;100.00;100861.91;5111539;28;20031;-65
2022/11/10 05:29:39;;;;;;;98.47;48.83;;;;;;;11.22;100.00;100856.13;5111407;28;20033;-65
2022/11/10 05:32:05;;;;;;;108.30;51.28;;;;;;;11.20;100.00;100867.03;5111402;28;20106;-65
2022/11/10 05:34:30;;;;;;;100.57;48.22;;;;;;;11.18;100.00;100878.84;5111783;28;20029;-65
2022/11/10 05:36:55;;;;;;;100.75;48.95;;;;;;;11.15;100.00;100874.59;5109893;28;20023;-65
2022/11/10 05:39:21;;;;;;;97.05;49.30;;;;;;;11.14;100.00;100870.22;5092066;28;20107;-66
2022/11/10 05:41:46;;;;;;;110.20;51.58;;;;;;;11.09;100.00;100867.03;5108614;28;20048;-65
2022/11/10 05:44:12;;;;;;;108.95;51.38;;;;;;;11.14;100.00;100877.41;5111186;28;20065;-65
2022/11/10 05:46:37;;;;;;;105.45;51.03;;;;;;;11.15;100.00;100888.03;5111067;28;20104;-67
2022/11/10 05:49:03;;;;;;;106.32;52.58;;;;;;;11.08;100.00;100885.94;5111199;28;20027;-66
2022/11/10 05:51:28;;;;;;;116.20;52.42;;;;;;;11.06;100.00;100879.88;5111388;28;20051;-67
2022/11/10 05:53:54;;;;;;;102.28;51.28;;;;;;;11.17;100.00;100896.81;5111151;27;20118;-66
2022/11/10 05:56:19;;;;;;;114.65;53.67;;;;;;;11.17;100.00;100895.94;5111553;28;20039;-67
2022/11/10 05:58:45;;;;;;;113.35;50.47;;;;;;;11.18;100.00;100906.56;5111466;28;20032;-67
2022/11/10 06:01:10;;;;;;;110.18;51.28;;;;;;;11.14;100.00;100907.81;5109638;28;20047;-67
2022/11/10 06:03:36;;;;;;;107.53;50.67;;;;;;;11.15;100.00;100908.63;5111189;28;20031;-68
2022/11/10 06:06:01;;;;;;;102.82;48.47;;;;;;;11.13;100.00;100914.13;5111114;28;20118;-71
2022/11/10 06:08:27;;;;;;;103.63;49.65;;;;;;;11.10;100.00;100916.22;5111140;28;20047;-72
2022/11/10 06:10:53;;;;;;;109.72;49.60;;;;;;;11.08;100.00;100927.09;5111026;28;20023;-71
2022/11/10 06:13:19;;;;;;;108.13;48.20;;;;;;;11.02;100.00;100922.19;5111127;28;20031;-71
2022/11/10 06:15:44;;;;;;;110.70;49.45;;;;;;;11.16;100.00;100939.91;5109926;28;20028;-72
2022/11/10 06:18:10;;;;;;;112.25;52.53;;;;;;;11.27;100.00;100940.75;5110817;28;20212;-72
2022/11/10 06:20:35;;;;;;;109.45;49.90;;;;;;;11.17;100.00;100937.09;5110882;28;20168;-71
2022/11/10 06:23:06;;;;;;;106.53;50.40;;;;;;;11.11;100.00;100958.19;5100120;28;20043;-71
2022/11/10 06:25:34;;;;;;;104.60;49.22;;;;;;;11.04;100.00;100947.09;5088653;28;20111;-71
2022/11/10 06:28:00;;;;;;;100.88;49.83;;;;;;;11.08;100.00;100958.44;5090154;28;20577;-71
2022/11/10 06:30:26;;;;;;;111.78;52.67;;;;;;;11.10;100.00;100961.88;5090082;28;20058;-72
2022/11/10 06:32:52;;;;;;;122.68;52.78;;;;;;;11.25;100.00;100971.34;5090505;28;20028;-71
2022/11/10 06:35:18;;;;;;;104.82;51.28;;;;;;;11.25;100.00;100977.59;5100952;28;20038;-71
2022/11/10 06:37:44;;;;;;;113.85;52.90;;;;;;;11.17;100.00;100963.06;5110438;28;20371;-71
2022/11/10 06:40:12;;;;;;;112.68;50.67;;;;;;;11.16;100.00;100972.13;5110324;27;20039;-70
2022/11/10 06:42:38;;;;;;;116.28;53.65;;;;;;;11.11;100.00;100966.25;5109936;28;20092;-70
2022/11/10 06:45:03;;;;;;;104.30;50.20;;;;;;;11.16;100.00;100978.31;5108306;28;20032;-70
2022/11/10 06:47:29;;;;;;;101.15;51.15;;;;;;;11.18;100.00;100979.06;5110193;28;20386;-70
2022/11/10 06:49:54;;;;;;;108.93;50.58;;;;;;;11.23;100.00;100987.59;5110213;28;20036;-70
2022/11/10 06:52:20;;;;;;;119.22;53.50;;;;;;;11.26;100.00;100992.72;5109764;28;20076;-71
2022/11/10 06:54:45;;;;;;;115.38;52.78;;;;;;;11.29;100.00;100997.00;5110309;28;20028;-70
2022/11/10 06:57:11;;;;;;;107.13;49.63;;;;;;;11.34;100.00;100997.47;5110075;28;20023;-71
2022/11/10 06:59:36;;;;;;;106.90;51.50;;;;;;;11.44;100.00;101009.19;5109876;28;20035;-70
2022/11/10 07:02:02;;;;;;;109.20;49.65;;;;;;;11.43;100.00;101010.19;5109656;28;20028;-70
2022/11/10 07:04:27;;;;;;;106.57;50.83;;;;;;;11.43;100.00;101002.97;5109441;28;20039;-71
2022/11/10 07:06:53;;;;;;;99.38;47.08;;;;;;;11.44;100.00;101001.13;5109957;28;20027;-70
2022/11/10 07:09:18;;;;;;;99.82;45.22;;;;;;;11.60;100.00;101014.19;5110387;28;20043;-70
2022/11/10 07:11:44;;;;;;;88.88;46.25;;;;;;;11.51;100.00;100992.47;5108272;28;20051;-70
2022/11/10 07:14:09;;;;;;;91.57;44.38;;;;;;;11.65;100.00;101012.00;5109482;28;20027;-70
2022/11/10 07:16:35;;;;;;;88.50;43.08;;;;;;;11.70;100.00;101025.94;5109545;28;20019;-70
2022/11/10 07:19:01;;;;;;;89.57;43.65;;;;;;;11.78;100.00;101028.84;5109292;28;20027;-69
2022/11/10 07:21:26;;;;;;;86.70;40.90;;;;;;;11.80;100.00;101027.72;5109563;28;20674;-71
2022/11/10 07:23:51;;;;;;;84.80;41.55;;;;;;;11.85;100.00;101032.72;5109986;28;20024;-71
2022/11/10 07:26:17;;;;;;;92.63;44.17;;;;;;;11.95;100.00;101041.75;5108841;28;20020;-70
2022/11/10 07:28:42;;;;;;;93.75;43.15;;;;;;;12.05;100.00;101037.31;5109025;28;20088;-71
2022/11/10 07:31:08;;;;;;;88.25;45.55;;;;;;;11.94;100.00;101040.91;5109513;28;20024;-70
2022/11/10 07:33:33;;;;;;;94.10;43.63;;;;;;;11.89;100.00;101045.81;5109579;28;20034;-70
2022/11/10 07:36:02;;;;;;;94.15;43.35;;;;;;;12.01;100.00;101042.13;5104710;28;20368;-69
2022/11/10 07:38:28;;;;;;;90.07;43.92;;;;;;;11.98;100.00;101058.50;5105354;28;20027;-70
2022/11/10 07:40:54;;;;;;;93.55;45.65;;;;;;;11.97;100.00;101039.81;5107285;28;20055;-70
2022/11/10 07:43:21;;;;;;;93.53;44.97;;;;;;;12.11;100.00;101056.50;5109457;28;20027;-70
2022/11/10 07:45:48;;;;;;;90.85;44.65;;;;;;;12.13;100.00;101051.00;5108734;28;20261;-72
2022/11/10 07:48:16;;;;;;;96.15;45.95;;;;;;;12.34;100.00;101062.66;5107992;28;20066;-71
2022/11/10 07:50:41;;;;;;;97.53;46.20;;;;;;;12.32;100.00;101057.41;5109608;28;20042;-71
2022/11/10 07:53:14;;;;;;;90.47;42.22;;;;;;;12.33;100.00;101058.28;5109518;28;20479;-71
2022/11/10 07:55:41;;;;;;;92.45;45.30;;;;;;;12.31;100.00;101063.78;5109049;28;20027;-67
2022/11/10 07:58:08;;;;;;;94.75;44.60;;;;;;;12.22;100.00;101061.00;5109005;28;20135;-67
2022/11/10 08:00:34;;;;;;;100.38;46.20;;;;;;;12.26;100.00;101068.69;5109319;28;20020;-67
2022/11/10 08:03:20;;;;;;;94.28;43.72;;;;;;;12.19;100.00;101080.91;5109396;28;20110;-66
2022/11/10 08:05:46;;;;;;;83.53;39.80;;;;;;;12.27;100.00;101085.66;5108733;28;20051;-72
2022/11/10 08:08:12;;;;;;;83.82;40.38;;;;;;;12.14;100.00;101091.22;5109335;28;20482;-71
2022/11/10 08:10:39;;;;;;;90.78;40.47;;;;;;;12.27;100.00;101091.06;5109492;28;20051;-71
2022/11/10 08:13:07;;;;;;;84.78;41.08;;;;;;;12.29;100.00;101091.78;5109333;28;20044;-72
2022/11/10 08:15:33;;;;;;;84.97;39.65;;;;;;;12.32;100.00;101094.22;5109362;28;20031;-71
2022/11/10 08:18:03;;;;;;;84.55;38.83;;;;;;;12.28;100.00;101099.00;5109004;28;20382;-71
2022/11/10 08:20:30;;;;;;;90.22;40.55;;;;;;;12.25;100.00;101104.63;5109012;28;20035;-67
2022/11/10 08:23:00;;;;;;;86.85;41.80;;;;;;;12.16;100.00;101105.38;5108546;28;20030;-66
2022/11/10 08:25:28;;;;;;;85.28;39.17;;;;;;;12.14;100.00;101103.78;5109280;28;20027;-67
2022/11/10 08:28:01;;;;;;;93.38;41.25;;;;;;;12.10;100.00;101100.53;5109126;28;20032;-66
2022/11/10 08:30:27;;;;;;;87.80;42.10;;;;;;;12.18;100.00;101105.25;5108977;28;20093;-66
2022/11/10 08:32:56;;;;;;;92.95;42.78;;;;;;;12.13;100.00;101099.41;5108811;28;20028;-71
2022/11/10 08:35:23;;;;;;;71.00;33.80;;;;;;;12.48;100.00;101100.88;5109199;28;20035;-71
2022/11/10 08:37:48;;;;;;;55.28;29.60;;;;;;;12.74;100.00;101117.56;5109258;28;20023;-71
2022/11/10 08:40:15;;;;;;;58.72;29.05;;;;;;;12.70;100.00;101116.94;5111413;28;20039;-72
2022/11/10 08:42:40;;;;;;;49.70;27.80;;;;;;;12.94;98.15;101108.66;5112790;28;20031;-72
2022/11/10 08:45:06;;;;;;;54.20;28.92;;;;;;;13.03;98.41;101113.28;5112343;28;20481;-72
2022/11/10 08:47:31;;;;;;;46.00;25.75;;;;;;;13.11;98.01;101117.03;5112645;28;20046;-71
2022/11/10 08:49:57;;;;;;;54.00;27.35;;;;;;;13.24;98.04;101119.50;5112681;28;20027;-72
2022/11/10 08:52:22;;;;;;;55.72;29.00;;;;;;;13.50;94.44;101127.06;5112746;28;20027;-69
2022/11/10 08:54:47;;;;;;;50.45;27.30;;;;;;;13.60;93.19;101127.09;5112973;28;20546;-70
2022/11/10 08:57:13;;;;;;;56.25;30.20;;;;;;;13.44;95.15;101132.97;5112151;28;20019;-70
2022/11/10 08:59:38;;;;;;;58.88;29.92;;;;;;;13.48;93.80;101142.50;5112398;27;20031;-70
2022/11/10 09:02:04;;;;;;;54.63;29.60;;;;;;;13.40;94.75;101139.63;5112178;28;20019;-71
2022/11/10 09:04:29;;;;;;;56.70;30.80;;;;;;;13.51;94.45;101162.94;5110730;28;20505;-70
2022/11/10 09:06:56;;;;;;;58.15;30.35;;;;;;;13.34;94.11;101145.53;5112167;28;20379;-70
2022/11/10 09:09:24;;;;;;;58.42;31.17;;;;;;;13.31;95.73;101167.34;5112225;28;20510;-69
2022/11/10 09:11:49;;;;;;;52.53;28.88;;;;;;;13.32;95.36;101174.44;5110730;28;20039;-70
2022/11/10 09:14:15;;;;;;;58.65;30.90;;;;;;;13.33;95.06;101170.78;5094218;28;20035;-71
2022/11/10 09:16:40;;;;;;;54.72;29.55;;;;;;;13.37;94.45;101177.59;5091850;28;20048;-70
2022/11/10 09:19:06;;;;;;;53.90;28.90;;;;;;;13.43;94.06;101181.63;5092763;28;20647;-70
2022/11/10 09:21:31;;;;;;;53.55;29.70;;;;;;;13.33;95.48;101189.66;5110437;28;20038;-72
2022/11/10 09:23:57;;;;;;;48.20;27.98;;;;;;;13.36;95.37;101200.16;5106719;28;20027;-72
2022/11/10 09:26:22;;;;;;;57.40;30.55;;;;;;;13.48;94.29;101190.16;5090518;28;20035;-71
2022/11/10 09:28:48;;;;;;;51.53;30.58;;;;;;;13.45;94.74;101185.03;5091814;28;20487;-71
2022/11/10 09:31:14;;;;;;;56.33;29.73;;;;;;;13.48;96.39;101184.78;5095614;28;20027;-71
2022/11/10 09:33:39;;;;;;;53.75;30.10;;;;;;;13.62;96.33;101184.44;5111655;28;20114;-71
2022/11/10 09:36:05;;;;;;;47.30;28.15;;;;;;;13.86;92.96;101174.19;5111685;28;20360;-71
2022/11/10 09:38:31;;;;;;;45.72;26.65;;;;;;;14.06;89.80;101175.16;5111910;28;20027;-70
2022/11/10 09:41:03;;;;;;;44.60;25.92;;;;;;;14.21;88.25;101181.84;5110247;28;20050;-70
2022/11/10 09:43:34;;;;;;;45.53;24.45;;;;;;;14.16;87.34;101187.69;5111332;27;20470;-71
2022/11/10 09:46:08;;;;;;;43.65;25.00;;;;;;;14.06;87.70;101175.97;5110996;28;20176;-70
2022/11/10 09:48:41;;;;;;;46.53;25.30;;;;;;;13.98;88.10;101178.50;5111674;28;20477;-70
2022/11/10 09:51:14;;;;;;;41.50;24.87;;;;;;;13.99;88.48;101177.50;5100293;28;20099;-71
2022/11/10 09:54:03;;;;;;;42.92;25.33;;;;;;;13.97;89.12;101182.22;5096207;28;20027;-71
2022/11/10 09:56:34;;;;;;;46.05;25.98;;;;;;;13.76;91.18;101181.38;5100131;28;20019;-70
2022/11/10 09:59:05;;;;;;;45.65;26.55;;;;;;;13.90;88.85;101202.63;5102794;28;20035;-71
2022/11/10 10:01:44;;;;;;;45.22;25.20;;;;;;;13.77;90.29;101198.44;5101335;28;20036;-70
2022/11/10 10:04:26;;;;;;;41.63;24.10;;;;;;;13.90;88.41;101201.75;5095950;28;20475;-70
2022/11/10 10:07:13;;;;;;;41.00;25.58;;;;;;;13.95;88.11;101196.78;5109023;28;20027;-71
2022/11/10 10:10:13;;;;;;;45.38;25.05;;;;;;;13.81;90.39;101205.25;5111258;28;20404;-71
2022/11/10 10:12:55;;;;;;;46.40;26.63;;;;;;;13.75;90.16;101217.44;5110037;28;20044;-71
2022/11/10 10:15:54;;;;;;;39.92;23.88;;;;;;;13.86;87.16;101206.56;5110001;28;20043;-71
2022/11/10 10:18:41;;;;;;;40.88;23.58;;;;;;;13.85;88.13;101218.34;5102751;28;20459;-71
2022/11/10 10:21:31;;;;;;;40.70;23.02;;;;;;;14.03;85.50;101227.53;5106718;28;20099;-71
2022/11/10 10:24:01;;;;;;;39.67;23.67;;;;;;;13.83;88.41;101217.59;5107509;28;20080;-70
2022/11/10 10:26:30;;;;;;;39.72;22.90;;;;;;;13.96;86.00;101222.81;5110369;27;20044;-70
2022/11/10 10:29:00;;;;;;;37.67;23.40;;;;;;;13.73;88.92;101221.25;5110362;28;20087;-71
2022/11/10 10:31:41;;;;;;;45.67;25.83;;;;;;;13.76;90.17;101227.22;5110273;28;20079;-70
2022/11/10 10:34:15;;;;;;;42.88;25.15;;;;;;;13.69;90.48;101234.13;5106156;28;20031;-71
2022/11/10 10:36:41;;;;;;;41.10;24.35;;;;;;;13.93;88.32;101234.69;5110344;28;20038;-70
2022/11/10 10:39:25;;;;;;;43.25;23.98;;;;;;;13.92;87.59;101235.69;5107511;28;20475;-71
2022/11/10 10:41:50;;;;;;;41.63;24.50;;;;;;;13.94;87.50;101236.41;5109812;28;20043;-70
2022/11/10 10:44:18;;;;;;;39.55;22.98;;;;;;;13.85;88.55;101250.69;5108839;28;20048;-71
2022/11/10 10:46:55;;;;;;;43.05;24.60;;;;;;;13.64;90.01;101253.41;5108707;28;20055;-70
2022/11/10 10:49:23;;;;;;;41.00;23.30;;;;;;;13.52;91.15;101259.00;5107911;28;20024;-71
2022/11/10 10:51:51;;;;;;;43.97;24.70;;;;;;;13.59;90.59;101255.66;5095919;28;20035;-71
2022/11/10 10:54:28;;;;;;;41.03;24.17;;;;;;;13.54;91.58;101257.88;5109629;28;20027;-70
2022/11/10 10:57:24;;;;;;;41.83;24.23;;;;;;;13.66;90.10;101258.66;5108978;28;20696;-70
2022/11/10 10:59:51;;;;;;;41.58;23.02;;;;;;;13.60;91.18;101243.00;5108276;28;20097;-70
2022/11/10 11:02:23;;;;;;;45.92;24.95;;;;;;;13.73;90.50;101246.34;5093313;28;20042;-71
2022/11/10 11:05:09;;;;;;;41.72;24.67;;;;;;;13.71;90.42;101241.09;5107797;28;20042;-70
2022/11/10 11:07:34;;;;;;;39.63;23.90;;;;;;;13.69;90.79;101259.25;5108828;28;20035;-71
2022/11/10 11:10:00;;;;;;;43.22;25.63;;;;;;;13.82;90.16;101256.34;5109408;28;20546;-70
2022/11/10 11:12:30;;;;;;;49.30;25.95;;;;;;;13.79;90.22;101259.31;5109481;28;20382;-65
2022/11/10 11:15:31;;;;;;;44.67;26.90;;;;;;;13.74;90.85;101256.19;5107310;28;20043;-65
2022/11/10 11:18:01;;;;;;;46.53;25.90;;;;;;;13.73;91.66;101242.81;5045657;28;20040;-66
2022/11/10 11:20:36;;;;;;;39.13;24.65;;;;;;;13.75;90.39;101252.47;5093329;28;20510;-65
2022/11/10 11:23:39;;;;;;;46.88;25.65;;;;;;;13.91;89.92;101260.97;5107302;28;20783;-66